Time;durP1;ratioP1;P1;durP2;ratioP2;P2;SDS_P1;SDS_P2;PMS_P1;PMS_P2;Temp;Humidity;BMP_temperature;BMP_pressure;BME280_temperature;BME280_humidity;BME280_pressure;Samples;Min_cycle;Max_cycle;Signal;HPM_P1;HPM_P2
2022/04/10 00:01:49;;;;;;;0.60;0.60;;;4.30;76.20;3.60;98383.00;;;;5114770;28;20360;-73
2022/04/10 00:04:17;;;;;;;0.87;0.87;;;4.40;76.10;3.60;98382.00;;;;5113836;28;20301;-73
2022/04/10 00:06:46;;;;;;;1.60;1.00;;;4.40;76.20;3.70;98386.00;;;;5114731;28;20190;-73
2022/04/10 00:09:14;;;;;;;0.80;0.80;;;4.50;75.70;3.70;98368.00;;;;5114644;28;20235;-73
2022/04/10 00:11:41;;;;;;;0.80;0.80;;;4.50;75.80;3.80;98381.00;;;;5096696;28;20201;-73
2022/04/10 00:14:08;;;;;;;1.93;1.57;;;4.50;75.70;3.80;98385.00;;;;5114583;28;20236;-72
2022/04/10 00:16:34;;;;;;;0.90;0.90;;;4.60;75.10;3.80;98376.00;;;;5114545;28;20241;-72
2022/04/10 00:19:04;;;;;;;0.60;0.60;;;4.60;74.90;3.80;98377.00;;;;5114457;28;20591;-73
2022/04/10 00:21:31;;;;;;;0.70;0.70;;;4.60;72.80;3.90;98368.00;;;;5096819;28;20659;-72
2022/04/10 00:24:00;;;;;;;0.60;0.60;;;4.70;71.30;4.30;98379.00;;;;5114405;28;20537;-73
2022/04/10 00:26:29;;;;;;;0.60;0.60;;;4.80;69.10;4.50;98377.00;;;;5114449;28;20201;-73
2022/04/10 00:28:57;;;;;;;0.93;0.93;;;5.10;66.40;4.50;98371.00;;;;5114259;28;20257;-73
2022/04/10 00:31:23;;;;;;;0.60;0.60;;;5.10;65.50;4.50;98338.00;;;;5114327;28;20704;-73
2022/04/10 00:33:52;;;;;;;0.60;0.60;;;5.20;65.40;4.50;98374.00;;;;5114300;28;20197;-72
2022/04/10 00:36:21;;;;;;;0.70;0.70;;;5.30;64.80;4.60;98380.00;;;;5114109;28;20723;-74
2022/04/10 00:38:48;;;;;;;0.70;0.70;;;5.20;65.10;4.60;98379.00;;;;5114261;28;20255;-73
2022/04/10 00:41:15;;;;;;;0.80;0.80;;;5.30;64.10;4.50;98382.00;;;;5113741;28;20291;-72
2022/04/10 00:44:04;;;;;;;0.80;0.80;;;5.30;64.40;4.60;98384.00;;;;5114008;28;20261;-74
2022/04/10 00:46:31;;;;;;;1.50;1.07;;;5.30;64.40;4.60;98355.00;;;;5114237;28;20224;-73
2022/04/10 00:48:58;;;;;;;0.80;0.80;;;5.40;64.40;4.50;98381.00;;;;5096197;28;20217;-73
2022/04/10 00:51:42;;;;;;;0.80;0.80;;;5.30;64.20;4.60;98388.00;;;;5113999;28;20243;-73
2022/04/10 00:54:12;;;;;;;0.70;0.70;;;5.40;64.40;4.50;98386.00;;;;5113912;28;20228;-74
2022/04/10 00:56:41;;;;;;;0.80;0.80;;;5.30;64.40;4.60;98392.00;;;;5113873;28;20252;-75
2022/04/10 00:59:08;;;;;;;1.43;1.43;;;5.30;64.80;4.60;98389.00;;;;5113973;28;20310;-73
2022/04/10 01:01:39;;;;;;;0.63;0.63;;;5.30;63.90;4.60;98380.00;;;;5113874;28;20193;-73
2022/04/10 01:04:07;;;;;;;0.60;0.60;;;5.40;63.60;4.50;98385.00;;;;5113856;28;20624;-73
2022/04/10 01:06:34;;;;;;;0.80;0.80;;;5.30;64.20;4.50;98397.00;;;;5113944;28;20190;-74
2022/04/10 01:09:01;;;;;;;0.60;0.60;;;5.30;64.20;4.50;98399.00;;;;5113894;28;20190;-74
2022/04/10 01:11:32;;;;;;;1.00;1.00;;;5.20;64.80;4.70;98405.00;;;;5113953;28;20213;-73
2022/04/10 01:13:59;;;;;;;0.70;0.70;;;5.30;65.00;4.70;98405.00;;;;5095764;28;20213;-73
2022/04/10 01:16:30;;;;;;;1.23;1.23;;;5.40;63.90;4.70;98407.00;;;;5095696;28;20798;-74
2022/04/10 01:18:58;;;;;;;0.70;0.70;;;5.40;64.20;4.70;98415.00;;;;5095786;28;20284;-73
2022/04/10 01:21:28;;;;;;;0.80;0.80;;;5.40;63.00;4.40;98423.00;;;;5113628;28;20225;-74
2022/04/10 01:23:56;;;;;;;0.50;0.50;;;5.30;63.40;4.60;98395.00;;;;5113616;28;20198;-73
2022/04/10 01:26:25;;;;;;;0.93;0.93;;;5.30;63.50;4.50;98424.00;;;;5113578;28;20260;-73
2022/04/10 01:29:00;;;;;;;0.60;0.60;;;5.40;63.20;4.50;98418.00;;;;5095729;28;20230;-74
2022/04/10 01:31:29;;;;;;;4.53;1.43;;;5.40;64.30;4.70;98423.00;;;;5113571;28;20182;-74
2022/04/10 01:33:59;;;;;;;0.60;0.60;;;5.40;63.70;4.60;98421.00;;;;5112587;28;20197;-75
2022/04/10 01:36:28;;;;;;;5.93;0.90;;;5.40;63.80;4.30;98424.00;;;;5113739;28;20225;-73
2022/04/10 01:38:58;;;;;;;0.80;0.80;;;5.30;64.10;4.40;98421.00;;;;5113483;28;20308;-73
2022/04/10 01:41:26;;;;;;;0.77;0.77;;;5.20;64.20;4.30;98419.00;;;;5113386;28;20233;-74
2022/04/10 01:43:57;;;;;;;0.77;0.77;;;5.10;64.80;4.40;98401.00;;;;5095329;28;20226;-74
2022/04/10 01:46:29;;;;;;;0.80;0.80;;;5.20;64.90;4.20;98379.00;;;;5113412;28;20248;-73
2022/04/10 01:48:58;;;;;;;0.60;0.60;;;5.10;64.80;4.20;98425.00;;;;5113372;28;20228;-73
2022/04/10 01:51:25;;;;;;;0.97;0.97;;;5.00;65.10;4.20;98421.00;;;;5113406;28;20633;-74
2022/04/10 01:53:56;;;;;;;0.73;0.73;;;5.00;65.40;4.00;98417.00;;;;5096081;28;20603;-73
2022/04/10 01:56:25;;;;;;;0.60;0.60;;;5.00;65.90;4.20;98412.00;;;;5098753;28;20206;-73
2022/04/10 01:58:52;;;;;;;0.70;0.70;;;5.00;65.50;4.10;98410.00;;;;5116858;28;20296;-74
2022/04/10 02:01:21;;;;;;;0.60;0.60;;;4.90;65.90;4.10;98409.00;;;;5116597;28;20676;-73
2022/04/10 02:03:51;;;;;;;0.60;0.60;;;4.80;66.10;4.10;98416.00;;;;5098713;28;20289;-73
2022/04/10 02:06:20;;;;;;;0.73;0.73;;;4.90;66.30;4.00;98415.00;;;;5116517;28;20225;-73
2022/04/10 02:08:47;;;;;;;0.73;0.73;;;4.80;66.20;3.90;98419.00;;;;5116633;28;20200;-73
2022/04/10 02:11:16;;;;;;;1.77;1.67;;;4.70;67.00;3.90;98410.00;;;;5116429;28;20216;-73
2022/04/10 02:13:43;;;;;;;0.80;0.80;;;4.70;67.50;3.80;98415.00;;;;5116636;28;20205;-73
2022/04/10 02:16:14;;;;;;;1.03;1.03;;;4.70;67.40;3.90;98408.00;;;;5116618;28;20209;-73
2022/04/10 02:18:40;;;;;;;0.70;0.70;;;4.70;68.20;3.70;98411.00;;;;5116332;28;20299;-73
2022/04/10 02:21:10;;;;;;;0.70;0.70;;;4.60;68.00;3.70;98399.00;;;;5116371;28;20194;-73
2022/04/10 02:23:37;;;;;;;0.70;0.70;;;4.60;68.30;3.70;98404.00;;;;5098378;28;20545;-73
2022/04/10 02:26:05;;;;;;;0.60;0.60;;;4.60;68.10;3.70;98385.00;;;;5116232;28;20648;-73
2022/04/10 02:28:33;;;;;;;0.80;0.80;;;4.50;68.60;3.70;98396.00;;;;5116172;28;20296;-74
2022/04/10 02:31:00;;;;;;;0.80;0.80;;;4.50;68.50;3.80;98416.00;;;;5116244;28;20255;-73
2022/04/10 02:33:27;;;;;;;0.60;0.60;;;4.50;68.80;3.70;98412.00;;;;5098101;28;20204;-73
2022/04/10 02:35:53;;;;;;;1.00;1.00;;;4.50;68.90;3.70;98418.00;;;;5116152;28;20213;-74
2022/04/10 02:38:20;;;;;;;0.67;0.67;;;4.50;68.90;3.70;98411.00;;;;5098179;28;20222;-73
2022/04/10 02:40:48;;;;;;;0.60;0.60;;;4.50;69.10;3.50;98421.00;;;;5116034;28;20247;-73
2022/04/10 02:43:17;;;;;;;0.93;0.93;;;4.40;68.20;3.50;98428.00;;;;5116100;28;20201;-74
2022/04/10 02:45:44;;;;;;;1.13;1.13;;;4.30;70.00;3.60;98429.00;;;;5097952;28;20530;-73
2022/04/10 02:48:11;;;;;;;1.60;1.27;;;4.30;69.10;3.60;98421.00;;;;5098250;28;20222;-73
2022/04/10 02:50:39;;;;;;;1.00;1.00;;;4.20;69.40;3.40;98419.00;;;;5098584;28;20403;-73
2022/04/10 02:53:07;;;;;;;0.90;0.90;;;4.30;69.10;3.50;98424.00;;;;5116280;28;20611;-74
2022/04/10 02:55:34;;;;;;;0.90;0.90;;;4.30;69.70;3.40;98422.00;;;;5115986;28;20277;-73
2022/04/10 02:58:03;;;;;;;0.60;0.60;;;4.30;69.30;3.30;98424.00;;;;5098430;28;20264;-73
2022/04/10 03:00:29;;;;;;;1.40;1.20;;;4.20;69.90;3.40;98426.00;;;;5115937;28;20249;-73
2022/04/10 03:02:57;;;;;;;0.90;0.90;;;4.10;70.30;3.30;98442.00;;;;5115863;28;20228;-73
2022/04/10 03:05:26;;;;;;;0.80;0.80;;;4.10;70.50;3.20;98426.00;;;;5115544;28;20286;-73
2022/04/10 03:07:52;;;;;;;0.80;0.80;;;4.10;70.40;3.20;98427.00;;;;5097781;28;20235;-73
2022/04/10 03:10:19;;;;;;;0.80;0.80;;;4.10;70.90;3.20;98425.00;;;;5115582;28;20205;-73
2022/04/10 03:12:48;;;;;;;0.90;0.90;;;4.00;71.00;3.20;98427.00;;;;5115655;28;20618;-73
2022/04/10 03:15:15;;;;;;;1.33;1.23;;;4.00;71.10;3.20;98434.00;;;;5115492;28;20197;-73
2022/04/10 03:17:41;;;;;;;0.80;0.80;;;4.00;70.70;3.30;98433.00;;;;5115428;28;20243;-73
2022/04/10 03:20:11;;;;;;;0.60;0.60;;;4.00;70.90;3.10;98423.00;;;;5115440;28;20552;-73
2022/04/10 03:22:38;;;;;;;0.80;0.80;;;4.00;70.40;2.90;98428.00;;;;5115407;28;20197;-73
2022/04/10 03:25:08;;;;;;;1.00;1.00;;;3.90;71.50;3.10;98428.00;;;;5115289;28;20369;-74
2022/04/10 03:27:34;;;;;;;1.10;1.10;;;3.90;72.00;3.00;98436.00;;;;5097293;28;20693;-74
2022/04/10 03:30:01;;;;;;;1.17;1.07;;;3.80;71.90;3.00;98432.00;;;;5097182;28;20229;-73
2022/04/10 03:32:30;;;;;;;1.23;1.13;;;3.90;71.70;3.10;98426.00;;;;5115306;28;20240;-73
2022/04/10 03:34:56;;;;;;;2.67;0.73;;;3.90;71.80;3.00;98445.00;;;;5115259;28;20221;-74
2022/04/10 03:37:23;;;;;;;0.60;0.60;;;3.90;71.70;3.00;98442.00;;;;5115303;28;20228;-74
2022/04/10 03:39:50;;;;;;;0.70;0.70;;;3.90;71.10;2.90;98445.00;;;;5116791;28;20685;-75
2022/04/10 03:42:17;;;;;;;0.70;0.70;;;3.80;71.80;3.00;98445.00;;;;5118597;28;20703;-74
2022/04/10 03:44:43;;;;;;;0.80;0.80;;;3.80;71.80;3.10;98463.00;;;;5118190;28;20224;-74
2022/04/10 03:47:10;;;;;;;0.90;0.90;;;3.90;71.60;3.10;98452.00;;;;5117478;28;20311;-74
2022/04/10 03:49:36;;;;;;;0.60;0.60;;;3.90;71.90;3.00;98459.00;;;;5116251;28;20225;-73
2022/04/10 03:52:03;;;;;;;0.73;0.73;;;3.90;71.30;3.10;98463.00;;;;5115570;28;20288;-74
2022/04/10 03:54:31;;;;;;;0.80;0.80;;;3.90;71.10;3.00;98463.00;;;;5115548;28;20223;-73
2022/04/10 03:56:58;;;;;;;0.90;0.90;;;3.90;70.90;3.10;98472.00;;;;5115148;28;20245;-75
2022/04/10 03:59:24;;;;;;;0.90;0.90;;;3.90;71.00;3.00;98472.00;;;;5116132;28;20248;-75
2022/04/10 04:01:51;;;;;;;0.60;0.60;;;3.90;71.30;3.10;98477.00;;;;5117493;28;20288;-74
2022/04/10 04:04:17;;;;;;;0.70;0.70;;;3.90;71.40;3.10;98478.00;;;;5126327;28;20221;-74
2022/04/10 04:06:46;;;;;;;1.67;1.57;;;3.90;71.50;3.10;98482.00;;;;5116685;28;20226;-73
2022/04/10 04:09:13;;;;;;;1.10;1.10;;;3.90;70.90;3.20;98488.00;;;;5115390;28;20333;-74
2022/04/10 04:11:40;;;;;;;0.60;0.60;;;3.90;71.70;3.10;98489.00;;;;5114936;28;20202;-73
2022/04/10 04:14:07;;;;;;;0.80;0.80;;;3.90;71.30;3.00;98486.00;;;;5096959;28;20699;-73
2022/04/10 04:16:36;;;;;;;0.80;0.80;;;3.90;71.50;3.10;98496.00;;;;5113705;28;20211;-73
2022/04/10 04:19:03;;;;;;;0.77;0.77;;;3.90;71.30;2.90;98496.00;;;;5114591;28;20285;-73
2022/04/10 04:21:32;;;;;;;0.80;0.80;;;3.80;71.80;2.90;98491.00;;;;5114402;28;20224;-73
2022/04/10 04:23:59;;;;;;;0.80;0.80;;;3.90;72.50;2.90;98498.00;;;;5114492;28;20237;-73
2022/04/10 04:26:25;;;;;;;0.80;0.80;;;3.80;72.90;3.00;98488.00;;;;5114424;28;20229;-73
2022/04/10 04:28:52;;;;;;;1.33;1.33;;;3.90;72.70;3.20;98501.00;;;;5114476;28;20206;-73
2022/04/10 04:31:21;;;;;;;0.77;0.77;;;4.00;72.20;3.20;98477.00;;;;5114243;28;20204;-73
2022/04/10 04:33:47;;;;;;;0.93;0.93;;;4.10;72.10;3.20;98504.00;;;;5114568;28;20643;-73
2022/04/10 04:36:15;;;;;;;0.60;0.60;;;4.00;72.00;3.20;98500.00;;;;5114286;28;20676;-73
2022/04/10 04:38:42;;;;;;;1.27;1.27;;;4.00;72.10;3.20;98506.00;;;;5096189;28;20228;-73
2022/04/10 04:41:10;;;;;;;3.83;1.40;;;4.00;72.20;3.10;98516.00;;;;5114347;28;20208;-73
2022/04/10 04:43:37;;;;;;;0.80;0.80;;;4.00;72.20;3.30;98518.00;;;;5114209;28;20286;-73
2022/04/10 04:46:04;;;;;;;0.90;0.90;;;4.00;72.10;3.10;98518.00;;;;5114187;28;20661;-73
2022/04/10 04:48:33;;;;;;;1.07;1.07;;;4.00;72.20;3.10;98523.00;;;;5114078;28;20311;-73
2022/04/10 04:51:02;;;;;;;1.40;1.40;;;4.00;72.70;3.20;98530.00;;;;5114140;28;20262;-73
2022/04/10 04:53:29;;;;;;;1.33;1.33;;;4.00;72.90;3.30;98507.00;;;;5114088;28;20210;-74
2022/04/10 04:55:57;;;;;;;1.17;1.17;;;4.10;73.10;3.40;98523.00;;;;5096055;28;20204;-73
2022/04/10 04:58:26;;;;;;;0.73;0.73;;;4.20;73.00;3.50;98534.00;;;;5095936;28;20235;-73
2022/04/10 05:00:53;;;;;;;0.70;0.70;;;4.30;72.50;3.60;98535.00;;;;5113985;28;20193;-73
2022/04/10 05:03:22;;;;;;;0.87;0.87;;;4.40;72.10;3.70;98531.00;;;;5113943;28;20200;-73
2022/04/10 05:05:49;;;;;;;1.20;1.20;;;4.40;72.10;3.70;98539.00;;;;5113787;28;20298;-73
2022/04/10 05:08:19;;;;;;;1.60;1.20;;;4.50;71.30;3.80;98538.00;;;;5113944;28;20277;-73
2022/04/10 05:10:46;;;;;;;0.80;0.80;;;4.50;70.30;3.90;98540.00;;;;5095916;28;20236;-73
2022/04/10 05:13:13;;;;;;;1.00;0.93;;;4.60;69.60;3.80;98547.00;;;;5113852;28;20323;-73
2022/04/10 05:15:39;;;;;;;0.90;0.90;;;4.60;69.70;4.00;98525.00;;;;5113876;28;20698;-73
2022/04/10 05:18:06;;;;;;;0.93;0.93;;;4.60;69.70;3.90;98555.00;;;;5113828;28;20218;-73
2022/04/10 05:20:33;;;;;;;0.70;0.70;;;4.70;69.20;4.00;98552.00;;;;5114047;28;20735;-73
2022/04/10 05:23:00;;;;;;;1.30;1.30;;;4.70;69.70;4.00;98568.00;;;;5095882;28;20255;-73
2022/04/10 05:25:26;;;;;;;1.43;1.37;;;4.80;68.30;4.20;98576.00;;;;5095783;28;20201;-73
2022/04/10 05:27:53;;;;;;;0.90;0.90;;;4.80;69.60;4.10;98568.00;;;;5096486;28;20657;-73
2022/04/10 05:30:20;;;;;;;0.80;0.80;;;4.90;68.10;4.10;98570.00;;;;5117287;28;20513;-73
2022/04/10 05:32:46;;;;;;;0.97;0.97;;;4.90;68.00;4.10;98571.00;;;;5117455;28;20280;-73
2022/04/10 05:35:13;;;;;;;2.30;1.30;;;4.80;67.50;4.10;98578.00;;;;5117226;28;20704;-73
2022/04/10 05:37:40;;;;;;;0.70;0.70;;;4.90;67.90;4.20;98576.00;;;;5117227;28;20221;-73
2022/04/10 05:40:08;;;;;;;1.00;1.00;;;4.90;67.70;4.30;98579.00;;;;5099395;28;20321;-73
2022/04/10 05:42:38;;;;;;;0.90;0.90;;;5.00;67.00;4.20;98590.00;;;;5117360;28;20545;-74
2022/04/10 05:45:06;;;;;;;0.93;0.93;;;4.90;67.70;4.30;98594.00;;;;5117434;28;20677;-73
2022/04/10 05:47:36;;;;;;;1.00;1.00;;;5.00;67.60;4.30;98587.00;;;;5117271;28;20202;-73
2022/04/10 05:50:03;;;;;;;0.60;0.60;;;5.00;66.40;4.40;98589.00;;;;5116735;28;20225;-73
2022/04/10 05:52:30;;;;;;;0.80;0.80;;;5.10;66.60;4.30;98597.00;;;;5117289;28;20588;-73
2022/04/10 05:54:59;;;;;;;0.80;0.80;;;5.10;66.20;4.60;98605.00;;;;5099343;28;20221;-73
2022/04/10 05:57:25;;;;;;;1.03;0.90;;;5.30;66.10;4.60;98589.00;;;;5117150;28;20220;-74
2022/04/10 05:59:52;;;;;;;0.60;0.60;;;5.30;65.10;4.60;98604.00;;;;5099503;28;20289;-73
2022/04/10 06:02:18;;;;;;;0.70;0.70;;;5.30;65.10;4.50;98600.00;;;;5117138;28;20271;-75
2022/04/10 06:04:45;;;;;;;0.83;0.83;;;5.30;65.00;4.70;98599.00;;;;5116992;28;20196;-73
2022/04/10 06:07:11;;;;;;;1.07;1.03;;;5.30;65.70;4.70;98604.00;;;;5116839;28;20253;-73
2022/04/10 06:09:38;;;;;;;1.07;1.07;;;5.40;64.40;4.90;98609.00;;;;5116964;28;20229;-74
2022/04/10 06:12:07;;;;;;;0.63;0.63;;;5.50;64.40;4.80;98610.00;;;;5116644;28;20206;-73
2022/04/10 06:14:36;;;;;;;0.97;0.97;;;5.50;65.00;4.80;98609.00;;;;5116896;28;20276;-73
2022/04/10 06:17:03;;;;;;;0.90;0.90;;;5.50;65.10;4.70;98613.00;;;;5098709;28;20198;-73
2022/04/10 06:19:30;;;;;;;0.90;0.90;;;5.50;64.90;4.70;98614.00;;;;5116451;28;20218;-73
2022/04/10 06:21:57;;;;;;;3.10;1.10;;;5.50;65.10;5.00;98623.00;;;;5116600;28;20657;-73
2022/04/10 06:24:23;;;;;;;2.00;1.10;;;5.60;65.20;5.00;98633.00;;;;5116264;28;20218;-74
2022/04/10 06:26:49;;;;;;;0.87;0.87;;;5.70;64.80;5.20;98622.00;;;;5116463;28;20225;-73
2022/04/10 06:29:17;;;;;;;0.87;0.87;;;5.90;64.00;5.40;98631.00;;;;5116267;28;20297;-73
2022/04/10 06:31:43;;;;;;;0.77;0.77;;;6.00;63.20;5.40;98626.00;;;;5098597;28;20297;-73
2022/04/10 06:34:10;;;;;;;2.77;1.27;;;6.00;62.90;5.40;98635.00;;;;5116321;28;20279;-73
2022/04/10 06:36:37;;;;;;;3.60;1.47;;;6.10;62.20;5.50;98626.00;;;;5116130;28;20259;-73
2022/04/10 06:39:04;;;;;;;0.80;0.80;;;6.10;62.50;5.60;98626.00;;;;5115793;28;20224;-74
2022/04/10 06:41:30;;;;;;;1.47;1.47;;;6.20;61.90;5.60;98623.00;;;;5115685;28;20423;-74
2022/04/10 06:43:57;;;;;;;1.00;1.00;;;6.30;61.40;5.60;98630.00;;;;5116056;28;20197;-74
2022/04/10 06:46:27;;;;;;;0.70;0.70;;;6.20;61.80;5.50;98629.00;;;;5115909;28;20221;-73
2022/04/10 06:48:56;;;;;;;1.43;1.33;;;6.20;60.90;5.60;98628.00;;;;5098291;28;20297;-73
2022/04/10 06:51:23;;;;;;;0.90;0.90;;;6.30;60.60;5.80;98634.00;;;;5116569;28;20253;-73
2022/04/10 06:53:50;;;;;;;0.90;0.90;;;6.40;60.00;6.00;98617.00;;;;5120538;28;20201;-73
2022/04/10 06:56:16;;;;;;;0.70;0.70;;;6.60;59.30;6.10;98639.00;;;;5118026;28;20220;-74
2022/04/10 06:58:43;;;;;;;0.90;0.90;;;6.70;59.60;6.20;98627.00;;;;5099224;28;20237;-73
2022/04/10 07:01:10;;;;;;;1.00;1.00;;;6.80;58.70;6.20;98633.00;;;;5098291;28;20197;-72
2022/04/10 07:03:37;;;;;;;0.80;0.80;;;7.00;57.80;6.30;98643.00;;;;5115857;28;20221;-74
2022/04/10 07:06:04;;;;;;;0.80;0.80;;;6.90;58.70;6.30;98631.00;;;;5115832;28;20190;-73
2022/04/10 07:08:32;;;;;;;0.90;0.90;;;6.90;57.10;6.40;98634.00;;;;5115533;28;20734;-74
2022/04/10 07:10:59;;;;;;;0.70;0.70;;;7.10;57.60;6.30;98636.00;;;;5115678;28;20198;-74
2022/04/10 07:13:28;;;;;;;0.80;0.80;;;7.00;56.80;6.30;98638.00;;;;5115676;28;20217;-74
2022/04/10 07:15:55;;;;;;;1.00;1.00;;;7.00;56.90;6.30;98641.00;;;;5097635;28;20198;-74
2022/04/10 07:18:21;;;;;;;0.50;0.50;;;7.10;57.00;6.20;98643.00;;;;5115478;28;20214;-74
2022/04/10 07:20:49;;;;;;;0.70;0.70;;;6.90;56.70;6.10;98648.00;;;;5115491;28;20217;-75
2022/04/10 07:26:00;;;;;;;0.93;0.93;;;7.00;58.10;6.70;98646.00;;;;5115444;28;20571;-74
2022/04/10 07:28:26;;;;;;;3.20;1.73;;;7.30;57.00;6.50;98651.00;;;;5115504;28;20222;-74
2022/04/10 07:30:53;;;;;;;1.07;0.97;;;7.10;55.80;6.70;98652.00;;;;5115288;28;20303;-74
2022/04/10 07:33:19;;;;;;;0.90;0.90;;;7.30;55.80;7.00;98645.00;;;;5097646;28;20301;-74
2022/04/10 07:35:46;;;;;;;0.70;0.70;;;7.40;55.40;6.80;98656.00;;;;5115262;28;20343;-73
2022/04/10 07:38:13;;;;;;;0.93;0.93;;;7.50;54.40;7.00;98649.00;;;;5115077;28;20220;-74
2022/04/10 07:40:40;;;;;;;1.87;1.77;;;7.60;53.60;7.10;98654.00;;;;5115302;28;20191;-74
2022/04/10 07:43:07;;;;;;;0.80;0.80;;;7.60;54.80;7.40;98651.00;;;;5115102;28;20300;-74
2022/04/10 07:48:18;;;;;;;0.67;0.67;;;8.00;52.90;7.30;98654.00;;;;5115299;28;20225;-74
2022/04/10 07:50:44;;;;;;;0.87;0.87;;;8.00;51.90;7.50;98656.00;;;;5114848;28;20219;-72
2022/04/10 07:53:11;;;;;;;0.80;0.80;;;8.10;51.10;7.60;98654.00;;;;5115908;28;20208;-74
2022/04/10 07:55:38;;;;;;;0.60;0.60;;;8.10;51.80;7.60;98664.00;;;;5115136;28;20197;-74
2022/04/10 07:58:05;;;;;;;0.80;0.80;;;8.20;50.90;7.70;98672.00;;;;5115120;28;20212;-74
2022/04/10 08:00:32;;;;;;;0.73;0.73;;;8.30;51.10;7.90;98675.00;;;;5115128;28;20222;-74
2022/04/10 08:02:59;;;;;;;0.67;0.67;;;8.40;49.70;7.70;98671.00;;;;5097495;28;20532;-72
2022/04/10 08:05:28;;;;;;;0.70;0.70;;;8.40;48.00;7.70;98678.00;;;;5118025;28;20223;-74
2022/04/10 08:07:55;;;;;;;0.83;0.83;;;8.30;48.70;7.80;98686.00;;;;5117296;28;20190;-71
2022/04/10 08:10:22;;;;;;;1.20;1.10;;;8.40;47.90;7.90;98679.00;;;;5124477;28;20196;-72
2022/04/10 08:12:49;;;;;;;1.00;1.00;;;8.50;49.00;8.00;98689.00;;;;5113064;28;20188;-74
2022/04/10 08:15:16;;;;;;;1.57;1.47;;;8.50;46.70;7.70;98690.00;;;;5131077;28;20287;-72
2022/04/10 08:17:43;;;;;;;0.87;0.87;;;8.30;47.60;8.10;98691.00;;;;5136699;28;20221;-73
2022/04/10 08:20:12;;;;;;;0.73;0.73;;;8.60;47.20;7.80;98688.00;;;;5124666;28;20334;-74
2022/04/10 08:22:41;;;;;;;1.57;1.20;;;8.40;46.70;7.90;98699.00;;;;5114779;28;20239;-75
2022/04/10 08:25:11;;;;;;;2.37;0.90;;;8.50;47.20;8.00;98690.00;;;;5114669;28;20225;-76
2022/04/10 08:27:37;;;;;;;2.83;1.37;;;8.60;46.60;7.90;98704.00;;;;5114552;28;20260;-75
2022/04/10 08:30:09;;;;;;;7.17;1.70;;;8.50;46.40;8.00;98702.00;;;;5096515;28;20185;-75
2022/04/10 08:32:37;;;;;;;0.70;0.70;;;8.60;47.30;7.90;98699.00;;;;5114520;28;20199;-75
2022/04/10 08:35:06;;;;;;;0.83;0.83;;;8.60;46.50;8.40;98707.00;;;;5114333;28;20212;-74
2022/04/10 08:37:32;;;;;;;0.93;0.93;;;8.80;46.40;8.30;98699.00;;;;5114288;28;20700;-75
2022/04/10 08:39:59;;;;;;;3.33;1.00;;;8.80;46.20;8.40;98701.00;;;;5114177;28;20227;-72
2022/04/10 08:42:26;;;;;;;0.80;0.80;;;8.90;46.00;8.00;98701.00;;;;5114126;28;20227;-74
2022/04/10 08:44:56;;;;;;;0.80;0.80;;;8.70;46.00;8.00;98707.00;;;;5114230;28;20272;-75
2022/04/10 08:47:30;;;;;;;0.93;0.93;;;8.70;46.10;8.10;98708.00;;;;5114506;28;20219;-77
2022/04/10 08:50:01;;;;;;;0.90;0.90;;;8.70;46.40;8.30;98711.00;;;;5096308;28;20584;-74
2022/04/10 08:52:29;;;;;;;0.77;0.77;;;8.90;46.20;8.40;98716.00;;;;5096306;28;20315;-76
2022/04/10 08:54:55;;;;;;;2.30;1.43;;;9.00;45.30;8.40;98724.00;;;;5114477;28;20222;-78
2022/04/10 08:57:24;;;;;;;0.87;0.87;;;9.00;45.70;8.70;98724.00;;;;5114453;28;20224;-78
2022/04/10 08:59:50;;;;;;;1.10;1.10;;;9.10;45.20;8.60;98714.00;;;;5114975;28;20681;-83
2022/04/10 09:02:17;;;;;;;2.20;2.00;;;9.20;43.40;8.90;98732.00;;;;5114969;28;20600;-82
2022/04/10 09:04:45;;;;;;;1.27;1.23;;;9.30;44.30;9.00;98723.00;;;;5118077;28;20277;-82
2022/04/10 09:07:12;;;;;;;0.90;0.90;;;9.50;43.60;8.80;98724.00;;;;5099892;28;20541;-81
2022/04/10 09:09:51;;;;;;;14.63;2.53;;;9.40;44.80;8.50;98732.00;;;;5099700;28;20218;-80
2022/04/10 09:12:18;;;;;;;1.17;1.17;;;9.20;43.70;8.60;98728.00;;;;5117896;28;20204;-81
2022/04/10 09:14:49;;;;;;;1.20;1.17;;;9.20;43.70;8.60;98695.00;;;;5118191;28;20668;-82
2022/04/10 09:17:17;;;;;;;2.27;1.27;;;9.20;42.80;8.80;98733.00;;;;5117749;28;20299;-81
2022/04/10 09:19:47;;;;;;;1.93;1.80;;;9.30;44.40;8.80;98704.00;;;;5099646;28;20209;-80
2022/04/10 09:22:25;;;;;;;0.90;0.90;;;9.40;43.60;9.20;98718.00;;;;5117859;28;20235;-82
2022/04/10 09:25:03;;;;;;;1.03;1.03;;;9.60;42.70;9.00;98715.00;;;;5117878;28;20241;-78
2022/04/10 09:27:32;;;;;;;1.70;1.60;;;9.50;43.20;8.90;98697.00;;;;5099539;28;20532;-78
2022/04/10 09:29:59;;;;;;;0.70;0.70;;;9.50;42.70;8.90;98720.00;;;;5117474;28;20255;-80
2022/04/10 09:32:38;;;;;;;0.90;0.90;;;9.50;40.50;9.00;98719.00;;;;5117457;28;20241;-78
2022/04/10 09:35:10;;;;;;;1.70;1.33;;;9.60;39.90;9.00;98704.00;;;;5117984;28;20236;-79
2022/04/10 09:37:47;;;;;;;1.17;1.17;;;9.50;40.30;9.50;98706.00;;;;5124690;28;20226;-79
2022/04/10 09:40:30;;;;;;;1.00;1.00;;;9.90;40.50;9.30;98701.00;;;;5123256;28;20628;-77
2022/04/10 09:43:05;;;;;;;0.70;0.70;;;10.00;39.00;9.40;98723.00;;;;5098980;28;20336;-75
2022/04/10 09:45:35;;;;;;;0.80;0.80;;;10.00;37.80;9.00;98701.00;;;;5117790;28;20201;-78
2022/04/10 09:48:20;;;;;;;0.60;0.60;;;9.80;39.60;9.30;98713.00;;;;5116410;28;20225;-80
2022/04/10 09:50:48;;;;;;;1.23;1.13;;;9.80;40.00;9.40;98713.00;;;;5117474;28;20250;-81
2022/04/10 09:53:15;;;;;;;0.63;0.63;;;9.90;40.10;9.40;98711.00;;;;5119571;28;20244;-80
2022/04/10 09:55:43;;;;;;;1.97;1.73;;;10.00;40.20;9.50;98719.00;;;;5116928;28;20190;-78
2022/04/10 09:58:13;;;;;;;0.93;0.93;;;10.10;40.50;9.40;98717.00;;;;5116776;28;20287;-78
2022/04/10 10:00:44;;;;;;;0.60;0.60;;;10.00;39.90;9.30;98706.00;;;;5098941;28;20194;-78
2022/04/10 10:03:12;;;;;;;0.90;0.90;;;10.00;40.00;9.40;98718.00;;;;5098694;28;20255;-77
2022/04/10 10:05:39;;;;;;;0.60;0.60;;;9.90;40.90;9.20;98739.00;;;;5116812;28;20200;-78
2022/04/10 10:08:09;;;;;;;6.40;1.20;;;9.80;40.30;8.90;98736.00;;;;5116856;28;20229;-80
2022/04/10 10:10:37;;;;;;;0.73;0.73;;;9.60;41.10;8.70;98751.00;;;;5116906;28;20194;-80
2022/04/10 10:13:06;;;;;;;0.87;0.87;;;9.40;41.10;8.50;98760.00;;;;5098936;28;20288;-80
2022/04/10 10:15:33;;;;;;;1.23;1.23;;;9.30;40.40;8.40;98751.00;;;;5115719;28;20251;-79
2022/04/10 10:18:03;;;;;;;1.00;1.00;;;9.10;42.70;8.50;98729.00;;;;5116905;28;20228;-82
2022/04/10 10:20:31;;;;;;;1.37;1.30;;;9.10;45.00;8.30;98742.00;;;;5116511;28;20218;-78
2022/04/10 10:23:00;;;;;;;1.13;1.13;;;9.10;44.80;8.60;98740.00;;;;5116526;28;20668;-77
2022/04/10 10:25:35;;;;;;;1.07;0.80;;;9.30;44.50;8.90;98739.00;;;;5116570;28;20248;-78
2022/04/10 10:28:47;;;;;;;0.73;0.73;;;9.40;44.70;9.30;98739.00;;;;5116394;28;20255;-78
2022/04/10 10:31:50;;;;;;;1.00;1.00;;;9.70;45.20;9.90;98720.00;;;;5116437;28;20201;-79
2022/04/10 10:34:17;;;;;;;0.50;0.50;;;10.20;44.10;10.40;98726.00;;;;5109741;28;20286;-80
2022/04/10 10:36:43;;;;;;;0.63;0.63;;;10.60;42.40;10.30;98726.00;;;;5098625;28;20511;-81
2022/04/10 10:39:10;;;;;;;1.53;0.90;;;10.80;40.50;10.30;98744.00;;;;5098855;28;20229;-78
2022/04/10 10:41:38;;;;;;;0.70;0.70;;;10.80;38.10;10.30;98730.00;;;;5116471;28;20232;-78
2022/04/10 10:44:50;;;;;;;0.67;0.67;;;10.80;37.70;9.90;98737.00;;;;5097965;28;20230;-76
2022/04/10 10:47:24;;;;;;;0.80;0.80;;;10.60;37.90;9.40;98737.00;;;;5116059;28;20289;-75
2022/04/10 10:49:55;;;;;;;0.60;0.60;;;10.10;37.80;9.10;98748.00;;;;5116049;28;20217;-74
2022/04/10 10:52:23;;;;;;;0.80;0.80;;;9.80;40.20;8.50;98765.00;;;;5116013;28;20194;-80
2022/04/10 10:54:56;;;;;;;0.73;0.73;;;9.40;43.10;8.10;98745.00;;;;5097956;28;20232;-75
2022/04/10 10:57:41;;;;;;;0.80;0.80;;;9.00;43.30;8.10;98737.00;;;;5115688;28;20202;-76
2022/04/10 11:00:16;;;;;;;18.27;1.33;;;8.80;44.40;8.00;98731.00;;;;5116253;28;20228;-84
2022/04/10 11:02:50;;;;;;;0.63;0.63;;;8.70;44.40;8.00;98711.00;;;;5116401;28;20209;-82
2022/04/10 11:05:36;;;;;;;0.63;0.63;;;8.60;45.60;7.60;98718.00;;;;5115817;28;20256;-78
2022/04/10 11:08:06;;;;;;;0.60;0.60;;;8.40;45.70;8.10;98722.00;;;;5115748;28;20198;-77
2022/04/10 11:10:37;;;;;;;0.60;0.60;;;8.70;45.90;8.60;98719.00;;;;5115743;28;20534;-77
2022/04/10 11:13:09;;;;;;;0.70;0.70;;;9.00;44.20;8.90;98711.00;;;;5115976;28;20194;-81
2022/04/10 11:15:47;;;;;;;0.97;0.97;;;9.30;43.70;9.20;98708.00;;;;5115917;28;20278;-77
2022/04/10 11:18:34;;;;;;;0.90;0.90;;;9.70;42.70;10.00;98648.00;;;;5115891;28;20213;-77
2022/04/10 11:21:10;;;;;;;0.50;0.50;;;10.30;41.90;10.60;98696.00;;;;5097568;28;20272;-79
2022/04/10 11:23:44;;;;;;;1.00;1.00;;;10.80;39.60;11.00;98701.00;;;;5098056;28;20193;-79